sensor_id;sensor_type;location;lat;lon;timestamp;P1;durP1;ratioP1;P2;durP2;ratioP2
33421;SDS011;19763;55.798;37.782;2023-04-24T00:00:32;15.65;;;7.47;;
33421;SDS011;19763;55.798;37.782;2023-04-24T00:02:57;20.30;;;7.45;;
33421;SDS011;19763;55.798;37.782;2023-04-24T00:05:23;23.27;;;7.10;;
33421;SDS011;19763;55.798;37.782;2023-04-24T00:07:49;17.15;;;7.05;;
33421;SDS011;19763;55.798;37.782;2023-04-24T00:10:18;13.55;;;7.65;;
33421;SDS011;19763;55.798;37.782;2023-04-24T00:12:45;15.30;;;7.53;;
33421;SDS011;19763;55.798;37.782;2023-04-24T00:15:11;15.38;;;7.35;;
33421;SDS011;19763;55.798;37.782;2023-04-24T00:17:37;13.93;;;6.82;;
33421;SDS011;19763;55.798;37.782;2023-04-24T00:20:03;14.32;;;7.35;;
33421;SDS011;19763;55.798;37.782;2023-04-24T00:22:29;15.45;;;7.15;;
33421;SDS011;19763;55.798;37.782;2023-04-24T00:24:56;15.75;;;6.80;;
33421;SDS011;19763;55.798;37.782;2023-04-24T00:27:22;18.55;;;7.43;;
33421;SDS011;19763;55.798;37.782;2023-04-24T00:29:48;15.07;;;7.57;;
33421;SDS011;19763;55.798;37.782;2023-04-24T00:32:13;17.63;;;7.88;;
33421;SDS011;19763;55.798;37.782;2023-04-24T00:34:39;18.27;;;7.53;;
33421;SDS011;19763;55.798;37.782;2023-04-24T00:37:05;19.08;;;8.02;;
33421;SDS011;19763;55.798;37.782;2023-04-24T00:39:31;17.60;;;7.80;;
33421;SDS011;19763;55.798;37.782;2023-04-24T00:41:57;17.30;;;7.55;;
33421;SDS011;19763;55.798;37.782;2023-04-24T00:44:23;16.08;;;7.40;;
33421;SDS011;19763;55.798;37.782;2023-04-24T00:46:49;18.48;;;7.95;;
33421;SDS011;19763;55.798;37.782;2023-04-24T00:49:22;12.27;;;6.77;;
33421;SDS011;19763;55.798;37.782;2023-04-24T00:51:48;16.83;;;7.57;;
33421;SDS011;19763;55.798;37.782;2023-04-24T00:54:16;19.75;;;8.15;;
33421;SDS011;19763;55.798;37.782;2023-04-24T00:56:43;18.00;;;6.95;;
33421;SDS011;19763;55.798;37.782;2023-04-24T00:59:09;19.70;;;7.75;;
33421;SDS011;19763;55.798;37.782;2023-04-24T01:01:36;17.92;;;7.85;;
33421;SDS011;19763;55.798;37.782;2023-04-24T01:04:02;17.73;;;7.82;;
33421;SDS011;19763;55.798;37.782;2023-04-24T01:06:28;19.52;;;6.95;;
33421;SDS011;19763;55.798;37.782;2023-04-24T01:08:56;18.95;;;7.50;;
33421;SDS011;19763;55.798;37.782;2023-04-24T01:11:23;20.77;;;8.48;;
33421;SDS011;19763;55.798;37.782;2023-04-24T01:13:50;21.98;;;7.72;;
33421;SDS011;19763;55.798;37.782;2023-04-24T01:16:17;18.08;;;7.10;;
33421;SDS011;19763;55.798;37.782;2023-04-24T01:18:45;18.40;;;7.05;;
33421;SDS011;19763;55.798;37.782;2023-04-24T01:21:11;12.18;;;7.10;;
33421;SDS011;19763;55.798;37.782;2023-04-24T01:23:39;20.02;;;7.82;;
33421;SDS011;19763;55.798;37.782;2023-04-24T01:26:05;17.05;;;7.88;;
33421;SDS011;19763;55.798;37.782;2023-04-24T01:28:30;18.33;;;7.18;;
33421;SDS011;19763;55.798;37.782;2023-04-24T01:30:56;21.92;;;8.23;;
33421;SDS011;19763;55.798;37.782;2023-04-24T01:33:22;17.45;;;7.90;;
33421;SDS011;19763;55.798;37.782;2023-04-24T01:35:48;16.77;;;7.00;;
33421;SDS011;19763;55.798;37.782;2023-04-24T01:38:14;16.58;;;7.35;;
33421;SDS011;19763;55.798;37.782;2023-04-24T01:40:40;18.95;;;7.50;;
33421;SDS011;19763;55.798;37.782;2023-04-24T01:43:06;14.38;;;7.22;;
33421;SDS011;19763;55.798;37.782;2023-04-24T01:45:32;18.38;;;7.25;;
33421;SDS011;19763;55.798;37.782;2023-04-24T01:47:57;14.73;;;7.55;;
33421;SDS011;19763;55.798;37.782;2023-04-24T01:50:24;15.57;;;7.10;;
33421;SDS011;19763;55.798;37.782;2023-04-24T01:52:49;24.25;;;8.10;;
33421;SDS011;19763;55.798;37.782;2023-04-24T01:55:15;17.73;;;8.27;;
33421;SDS011;19763;55.798;37.782;2023-04-24T01:57:41;18.90;;;8.15;;
33421;SDS011;19763;55.798;37.782;2023-04-24T02:00:07;21.52;;;7.85;;
33421;SDS011;19763;55.798;37.782;2023-04-24T02:02:34;16.40;;;7.65;;
33421;SDS011;19763;55.798;37.782;2023-04-24T02:05:00;18.38;;;7.28;;
33421;SDS011;19763;55.798;37.782;2023-04-24T02:07:26;17.02;;;7.32;;
33421;SDS011;19763;55.798;37.782;2023-04-24T02:09:51;19.73;;;8.00;;
33421;SDS011;19763;55.798;37.782;2023-04-24T02:12:17;18.50;;;6.88;;
33421;SDS011;19763;55.798;37.782;2023-04-24T02:14:43;19.33;;;7.35;;
33421;SDS011;19763;55.798;37.782;2023-04-24T02:17:09;18.25;;;8.10;;
33421;SDS011;19763;55.798;37.782;2023-04-24T02:19:35;18.30;;;8.02;;
33421;SDS011;19763;55.798;37.782;2023-04-24T02:22:00;18.77;;;7.95;;
33421;SDS011;19763;55.798;37.782;2023-04-24T02:24:26;16.38;;;7.70;;
33421;SDS011;19763;55.798;37.782;2023-04-24T02:26:51;13.82;;;7.35;;
33421;SDS011;19763;55.798;37.782;2023-04-24T02:29:17;14.52;;;7.35;;
33421;SDS011;19763;55.798;37.782;2023-04-24T02:31:43;16.40;;;8.10;;
33421;SDS011;19763;55.798;37.782;2023-04-24T02:34:08;17.85;;;7.60;;
33421;SDS011;19763;55.798;37.782;2023-04-24T02:36:34;20.10;;;8.35;;
33421;SDS011;19763;55.798;37.782;2023-04-24T02:39:00;19.42;;;8.02;;
33421;SDS011;19763;55.798;37.782;2023-04-24T02:41:26;16.45;;;8.43;;
33421;SDS011;19763;55.798;37.782;2023-04-24T02:43:56;21.42;;;8.10;;
33421;SDS011;19763;55.798;37.782;2023-04-24T02:46:22;19.92;;;7.80;;
33421;SDS011;19763;55.798;37.782;2023-04-24T02:48:48;24.02;;;9.27;;
33421;SDS011;19763;55.798;37.782;2023-04-24T02:51:14;18.63;;;8.57;;
33421;SDS011;19763;55.798;37.782;2023-04-24T02:53:39;18.27;;;8.43;;
33421;SDS011;19763;55.798;37.782;2023-04-24T02:56:05;16.55;;;8.70;;
33421;SDS011;19763;55.798;37.782;2023-04-24T02:58:31;20.02;;;8.80;;
33421;SDS011;19763;55.798;37.782;2023-04-24T03:00:56;20.00;;;9.07;;
33421;SDS011;19763;55.798;37.782;2023-04-24T03:03:22;23.27;;;9.30;;
33421;SDS011;19763;55.798;37.782;2023-04-24T03:05:48;22.67;;;8.27;;
33421;SDS011;19763;55.798;37.782;2023-04-24T03:08:14;18.27;;;8.80;;
33421;SDS011;19763;55.798;37.782;2023-04-24T03:10:41;24.13;;;9.18;;
33421;SDS011;19763;55.798;37.782;2023-04-24T03:13:07;22.55;;;9.30;;
33421;SDS011;19763;55.798;37.782;2023-04-24T03:15:33;24.58;;;10.35;;
33421;SDS011;19763;55.798;37.782;2023-04-24T03:17:58;20.65;;;9.30;;
33421;SDS011;19763;55.798;37.782;2023-04-24T03:20:25;20.08;;;9.77;;
33421;SDS011;19763;55.798;37.782;2023-04-24T03:22:51;27.13;;;9.65;;
33421;SDS011;19763;55.798;37.782;2023-04-24T03:25:17;30.42;;;10.05;;
33421;SDS011;19763;55.798;37.782;2023-04-24T03:27:43;25.55;;;10.02;;
33421;SDS011;19763;55.798;37.782;2023-04-24T03:30:08;24.20;;;10.55;;
33421;SDS011;19763;55.798;37.782;2023-04-24T03:32:34;22.52;;;10.30;;
33421;SDS011;19763;55.798;37.782;2023-04-24T03:35:00;29.52;;;11.07;;
33421;SDS011;19763;55.798;37.782;2023-04-24T03:37:25;26.45;;;10.93;;
33421;SDS011;19763;55.798;37.782;2023-04-24T03:39:51;29.15;;;11.35;;
33421;SDS011;19763;55.798;37.782;2023-04-24T03:42:17;24.05;;;11.73;;
33421;SDS011;19763;55.798;37.782;2023-04-24T03:44:43;26.30;;;10.70;;
33421;SDS011;19763;55.798;37.782;2023-04-24T03:47:09;38.38;;;11.50;;
33421;SDS011;19763;55.798;37.782;2023-04-24T03:49:34;32.33;;;11.43;;
33421;SDS011;19763;55.798;37.782;2023-04-24T03:52:00;32.42;;;11.70;;
33421;SDS011;19763;55.798;37.782;2023-04-24T03:54:26;22.15;;;11.77;;
33421;SDS011;19763;55.798;37.782;2023-04-24T03:56:51;19.23;;;11.95;;
33421;SDS011;19763;55.798;37.782;2023-04-24T03:59:17;23.05;;;11.82;;
33421;SDS011;19763;55.798;37.782;2023-04-24T04:01:42;31.05;;;12.10;;
33421;SDS011;19763;55.798;37.782;2023-04-24T04:04:08;28.25;;;12.27;;
33421;SDS011;19763;55.798;37.782;2023-04-24T04:06:33;26.08;;;12.50;;
33421;SDS011;19763;55.798;37.782;2023-04-24T04:09:01;24.92;;;11.90;;
33421;SDS011;19763;55.798;37.782;2023-04-24T04:11:28;22.52;;;12.82;;
33421;SDS011;19763;55.798;37.782;2023-04-24T04:13:55;30.02;;;13.93;;
33421;SDS011;19763;55.798;37.782;2023-04-24T04:16:21;29.67;;;15.52;;
33421;SDS011;19763;55.798;37.782;2023-04-24T04:18:47;29.95;;;14.65;;
33421;SDS011;19763;55.798;37.782;2023-04-24T04:21:13;25.88;;;13.95;;
33421;SDS011;19763;55.798;37.782;2023-04-24T04:23:39;20.02;;;12.63;;
33421;SDS011;19763;55.798;37.782;2023-04-24T04:26:05;21.98;;;12.75;;
33421;SDS011;19763;55.798;37.782;2023-04-24T04:28:31;22.65;;;12.00;;
33421;SDS011;19763;55.798;37.782;2023-04-24T04:30:57;20.25;;;12.90;;
33421;SDS011;19763;55.798;37.782;2023-04-24T04:33:23;24.92;;;13.48;;
33421;SDS011;19763;55.798;37.782;2023-04-24T04:35:49;20.17;;;13.00;;
33421;SDS011;19763;55.798;37.782;2023-04-24T04:38:17;20.42;;;12.38;;
33421;SDS011;19763;55.798;37.782;2023-04-24T04:40:45;20.77;;;12.70;;
33421;SDS011;19763;55.798;37.782;2023-04-24T04:43:11;29.08;;;12.93;;
33421;SDS011;19763;55.798;37.782;2023-04-24T04:45:38;17.30;;;11.82;;
33421;SDS011;19763;55.798;37.782;2023-04-24T04:48:05;36.13;;;14.23;;
33421;SDS011;19763;55.798;37.782;2023-04-24T04:50:32;19.95;;;12.32;;
33421;SDS011;19763;55.798;37.782;2023-04-24T04:52:58;18.73;;;11.60;;
33421;SDS011;19763;55.798;37.782;2023-04-24T04:55:24;23.88;;;13.15;;
33421;SDS011;19763;55.798;37.782;2023-04-24T04:57:50;21.27;;;12.05;;
33421;SDS011;19763;55.798;37.782;2023-04-24T05:00:16;23.38;;;12.07;;
33421;SDS011;19763;55.798;37.782;2023-04-24T05:02:41;21.52;;;13.23;;
33421;SDS011;19763;55.798;37.782;2023-04-24T05:05:07;20.90;;;12.85;;
33421;SDS011;19763;55.798;37.782;2023-04-24T05:07:33;24.02;;;11.40;;
33421;SDS011;19763;55.798;37.782;2023-04-24T05:09:59;23.02;;;12.02;;
33421;SDS011;19763;55.798;37.782;2023-04-24T05:12:25;22.60;;;11.95;;
33421;SDS011;19763;55.798;37.782;2023-04-24T05:14:51;19.33;;;11.70;;
33421;SDS011;19763;55.798;37.782;2023-04-24T05:17:16;21.00;;;11.88;;
33421;SDS011;19763;55.798;37.782;2023-04-24T05:19:42;25.40;;;12.50;;
33421;SDS011;19763;55.798;37.782;2023-04-24T05:22:08;21.08;;;12.57;;
33421;SDS011;19763;55.798;37.782;2023-04-24T05:24:35;18.77;;;11.52;;
33421;SDS011;19763;55.798;37.782;2023-04-24T05:27:01;19.83;;;11.45;;
33421;SDS011;19763;55.798;37.782;2023-04-24T05:29:28;23.67;;;11.07;;
33421;SDS011;19763;55.798;37.782;2023-04-24T05:31:55;19.55;;;11.88;;
33421;SDS011;19763;55.798;37.782;2023-04-24T05:34:21;17.88;;;11.05;;
33421;SDS011;19763;55.798;37.782;2023-04-24T05:36:47;24.73;;;14.32;;
33421;SDS011;19763;55.798;37.782;2023-04-24T05:39:13;19.55;;;11.63;;
33421;SDS011;19763;55.798;37.782;2023-04-24T05:41:40;23.17;;;12.80;;
33421;SDS011;19763;55.798;37.782;2023-04-24T05:44:05;25.42;;;12.10;;
33421;SDS011;19763;55.798;37.782;2023-04-24T05:46:31;20.33;;;10.25;;
33421;SDS011;19763;55.798;37.782;2023-04-24T05:48:57;21.10;;;9.43;;
33421;SDS011;19763;55.798;37.782;2023-04-24T05:51:23;15.15;;;9.48;;
33421;SDS011;19763;55.798;37.782;2023-04-24T05:53:49;17.13;;;9.75;;
33421;SDS011;19763;55.798;37.782;2023-04-24T05:56:15;19.67;;;10.20;;
33421;SDS011;19763;55.798;37.782;2023-04-24T05:58:41;26.63;;;11.13;;
33421;SDS011;19763;55.798;37.782;2023-04-24T06:01:07;22.58;;;10.65;;
33421;SDS011;19763;55.798;37.782;2023-04-24T06:03:32;18.58;;;10.88;;
33421;SDS011;19763;55.798;37.782;2023-04-24T06:05:58;21.08;;;11.48;;
33421;SDS011;19763;55.798;37.782;2023-04-24T06:08:24;22.02;;;10.88;;
33421;SDS011;19763;55.798;37.782;2023-04-24T06:10:50;20.00;;;12.10;;
33421;SDS011;19763;55.798;37.782;2023-04-24T06:13:16;22.98;;;11.60;;
33421;SDS011;19763;55.798;37.782;2023-04-24T06:15:41;19.75;;;10.48;;
33421;SDS011;19763;55.798;37.782;2023-04-24T06:18:08;19.25;;;10.38;;
33421;SDS011;19763;55.798;37.782;2023-04-24T06:20:35;17.45;;;10.05;;
33421;SDS011;19763;55.798;37.782;2023-04-24T06:23:01;21.30;;;9.68;;
33421;SDS011;19763;55.798;37.782;2023-04-24T06:25:27;20.02;;;9.65;;
33421;SDS011;19763;55.798;37.782;2023-04-24T06:27:53;17.83;;;9.07;;
33421;SDS011;19763;55.798;37.782;2023-04-24T06:30:20;8.95;;;6.75;;
33421;SDS011;19763;55.798;37.782;2023-04-24T06:32:45;14.40;;;8.63;;
33421;SDS011;19763;55.798;37.782;2023-04-24T06:35:11;11.48;;;7.72;;
33421;SDS011;19763;55.798;37.782;2023-04-24T06:37:38;14.30;;;8.70;;
33421;SDS011;19763;55.798;37.782;2023-04-24T06:40:05;22.08;;;8.95;;
33421;SDS011;19763;55.798;37.782;2023-04-24T06:42:31;24.90;;;8.57;;
33421;SDS011;19763;55.798;37.782;2023-04-24T06:44:57;25.98;;;9.35;;
33421;SDS011;19763;55.798;37.782;2023-04-24T06:47:22;21.88;;;8.98;;
33421;SDS011;19763;55.798;37.782;2023-04-24T06:49:48;21.02;;;9.35;;
33421;SDS011;19763;55.798;37.782;2023-04-24T06:52:15;41.38;;;9.10;;
33421;SDS011;19763;55.798;37.782;2023-04-24T06:54:41;16.65;;;8.20;;
33421;SDS011;19763;55.798;37.782;2023-04-24T06:57:07;15.52;;;7.13;;
33421;SDS011;19763;55.798;37.782;2023-04-24T06:59:33;11.75;;;7.40;;
33421;SDS011;19763;55.798;37.782;2023-04-24T07:01:59;16.50;;;7.82;;
33421;SDS011;19763;55.798;37.782;2023-04-24T07:04:25;18.05;;;7.80;;
33421;SDS011;19763;55.798;37.782;2023-04-24T07:06:51;14.98;;;7.88;;
33421;SDS011;19763;55.798;37.782;2023-04-24T07:09:19;15.27;;;8.05;;
33421;SDS011;19763;55.798;37.782;2023-04-24T07:11:45;13.35;;;8.35;;
33421;SDS011;19763;55.798;37.782;2023-04-24T07:14:11;15.18;;;7.53;;
33421;SDS011;19763;55.798;37.782;2023-04-24T07:16:37;14.88;;;7.82;;
33421;SDS011;19763;55.798;37.782;2023-04-24T07:19:03;15.77;;;7.47;;
33421;SDS011;19763;55.798;37.782;2023-04-24T07:21:28;11.65;;;6.47;;
33421;SDS011;19763;55.798;37.782;2023-04-24T07:23:56;13.75;;;7.10;;
33421;SDS011;19763;55.798;37.782;2023-04-24T07:26:21;11.73;;;6.53;;
33421;SDS011;19763;55.798;37.782;2023-04-24T07:28:47;10.18;;;6.30;;
33421;SDS011;19763;55.798;37.782;2023-04-24T07:31:13;14.18;;;6.57;;
33421;SDS011;19763;55.798;37.782;2023-04-24T07:33:38;7.13;;;5.80;;
33421;SDS011;19763;55.798;37.782;2023-04-24T07:36:04;12.27;;;6.22;;
33421;SDS011;19763;55.798;37.782;2023-04-24T07:38:30;17.67;;;6.63;;
33421;SDS011;19763;55.798;37.782;2023-04-24T07:40:56;9.38;;;5.90;;
33421;SDS011;19763;55.798;37.782;2023-04-24T07:43:21;8.15;;;5.55;;
33421;SDS011;19763;55.798;37.782;2023-04-24T07:45:49;9.55;;;5.63;;
33421;SDS011;19763;55.798;37.782;2023-04-24T07:48:15;14.93;;;5.78;;
33421;SDS011;19763;55.798;37.782;2023-04-24T07:50:42;7.95;;;4.95;;
33421;SDS011;19763;55.798;37.782;2023-04-24T07:53:09;16.77;;;6.80;;
33421;SDS011;19763;55.798;37.782;2023-04-24T07:55:35;22.15;;;6.18;;
33421;SDS011;19763;55.798;37.782;2023-04-24T07:58:00;10.32;;;5.55;;
33421;SDS011;19763;55.798;37.782;2023-04-24T08:00:26;11.45;;;5.97;;
33421;SDS011;19763;55.798;37.782;2023-04-24T08:02:51;11.00;;;5.97;;
33421;SDS011;19763;55.798;37.782;2023-04-24T08:05:17;12.25;;;5.82;;
33421;SDS011;19763;55.798;37.782;2023-04-24T08:07:43;11.52;;;5.70;;
33421;SDS011;19763;55.798;37.782;2023-04-24T08:10:11;14.25;;;11.10;;
33421;SDS011;19763;55.798;37.782;2023-04-24T08:12:37;12.07;;;5.72;;
33421;SDS011;19763;55.798;37.782;2023-04-24T08:15:03;12.07;;;6.45;;
33421;SDS011;19763;55.798;37.782;2023-04-24T08:17:29;8.18;;;5.97;;
33421;SDS011;19763;55.798;37.782;2023-04-24T08:19:55;13.15;;;6.25;;
33421;SDS011;19763;55.798;37.782;2023-04-24T08:22:26;10.87;;;5.77;;
33421;SDS011;19763;55.798;37.782;2023-04-24T08:24:53;8.98;;;5.88;;
33421;SDS011;19763;55.798;37.782;2023-04-24T08:27:19;11.00;;;5.95;;
33421;SDS011;19763;55.798;37.782;2023-04-24T08:29:44;13.07;;;6.20;;
33421;SDS011;19763;55.798;37.782;2023-04-24T08:32:10;7.72;;;5.63;;
33421;SDS011;19763;55.798;37.782;2023-04-24T08:34:36;8.63;;;5.80;;
33421;SDS011;19763;55.798;37.782;2023-04-24T08:37:02;11.93;;;6.43;;
33421;SDS011;19763;55.798;37.782;2023-04-24T08:39:28;10.38;;;5.65;;
33421;SDS011;19763;55.798;37.782;2023-04-24T08:41:54;12.48;;;6.03;;
33421;SDS011;19763;55.798;37.782;2023-04-24T08:44:20;13.18;;;6.30;;
33421;SDS011;19763;55.798;37.782;2023-04-24T08:46:47;9.85;;;5.45;;
33421;SDS011;19763;55.798;37.782;2023-04-24T08:49:13;11.73;;;5.60;;
33421;SDS011;19763;55.798;37.782;2023-04-24T08:51:43;8.88;;;6.07;;
33421;SDS011;19763;55.798;37.782;2023-04-24T08:54:10;9.57;;;5.72;;
33421;SDS011;19763;55.798;37.782;2023-04-24T08:56:37;9.13;;;6.13;;
33421;SDS011;19763;55.798;37.782;2023-04-24T08:59:05;6.57;;;5.32;;
33421;SDS011;19763;55.798;37.782;2023-04-24T09:01:31;6.72;;;5.63;;
33421;SDS011;19763;55.798;37.782;2023-04-24T09:04:03;8.38;;;6.20;;
33421;SDS011;19763;55.798;37.782;2023-04-24T09:06:29;9.43;;;6.03;;
33421;SDS011;19763;55.798;37.782;2023-04-24T09:08:58;9.38;;;5.80;;
33421;SDS011;19763;55.798;37.782;2023-04-24T09:11:26;9.45;;;5.53;;
33421;SDS011;19763;55.798;37.782;2023-04-24T09:13:53;9.40;;;7.72;;
33421;SDS011;19763;55.798;37.782;2023-04-24T09:16:20;8.10;;;5.72;;
33421;SDS011;19763;55.798;37.782;2023-04-24T09:18:45;8.80;;;6.85;;
33421;SDS011;19763;55.798;37.782;2023-04-24T09:21:11;10.75;;;6.68;;
33421;SDS011;19763;55.798;37.782;2023-04-24T09:23:37;10.63;;;6.28;;
33421;SDS011;19763;55.798;37.782;2023-04-24T09:26:04;8.10;;;5.68;;
33421;SDS011;19763;55.798;37.782;2023-04-24T09:28:34;9.77;;;5.80;;
33421;SDS011;19763;55.798;37.782;2023-04-24T09:31:22;9.38;;;5.72;;
33421;SDS011;19763;55.798;37.782;2023-04-24T09:33:54;10.40;;;6.13;;
33421;SDS011;19763;55.798;37.782;2023-04-24T09:36:41;9.18;;;5.85;;
33421;SDS011;19763;55.798;37.782;2023-04-24T09:39:08;9.85;;;5.90;;
33421;SDS011;19763;55.798;37.782;2023-04-24T09:41:45;8.98;;;5.60;;
33421;SDS011;19763;55.798;37.782;2023-04-24T09:44:18;7.45;;;5.78;;
33421;SDS011;19763;55.798;37.782;2023-04-24T09:46:48;8.88;;;6.07;;
33421;SDS011;19763;55.798;37.782;2023-04-24T09:52:03;6.82;;;5.50;;
33421;SDS011;19763;55.798;37.782;2023-04-24T09:54:30;10.05;;;5.72;;
33421;SDS011;19763;55.798;37.782;2023-04-24T09:56:56;12.68;;;6.00;;
33421;SDS011;19763;55.798;37.782;2023-04-24T09:59:22;6.85;;;5.95;;
33421;SDS011;19763;55.798;37.782;2023-04-24T10:01:48;11.27;;;5.70;;
33421;SDS011;19763;55.798;37.782;2023-04-24T10:04:15;10.20;;;6.05;;
33421;SDS011;19763;55.798;37.782;2023-04-24T10:06:44;9.85;;;5.20;;
33421;SDS011;19763;55.798;37.782;2023-04-24T10:09:11;14.18;;;5.35;;
33421;SDS011;19763;55.798;37.782;2023-04-24T10:11:37;6.30;;;5.70;;
33421;SDS011;19763;55.798;37.782;2023-04-24T10:14:09;6.88;;;5.90;;
33421;SDS011;19763;55.798;37.782;2023-04-24T10:16:37;6.18;;;5.13;;
33421;SDS011;19763;55.798;37.782;2023-04-24T10:19:05;7.38;;;6.15;;
33421;SDS011;19763;55.798;37.782;2023-04-24T10:21:32;8.00;;;5.03;;
33421;SDS011;19763;55.798;37.782;2023-04-24T10:23:57;8.23;;;5.85;;
33421;SDS011;19763;55.798;37.782;2023-04-24T10:26:25;7.78;;;5.63;;
33421;SDS011;19763;55.798;37.782;2023-04-24T10:28:52;6.85;;;5.22;;
33421;SDS011;19763;55.798;37.782;2023-04-24T10:31:19;7.43;;;5.15;;
33421;SDS011;19763;55.798;37.782;2023-04-24T10:33:46;6.38;;;5.72;;
33421;SDS011;19763;55.798;37.782;2023-04-24T10:36:13;8.02;;;5.68;;
33421;SDS011;19763;55.798;37.782;2023-04-24T10:38:41;7.95;;;5.32;;
33421;SDS011;19763;55.798;37.782;2023-04-24T10:41:10;6.60;;;5.90;;
33421;SDS011;19763;55.798;37.782;2023-04-24T10:43:41;10.02;;;5.40;;
33421;SDS011;19763;55.798;37.782;2023-04-24T10:46:07;8.52;;;6.20;;
33421;SDS011;19763;55.798;37.782;2023-04-24T10:48:35;14.05;;;6.63;;
33421;SDS011;19763;55.798;37.782;2023-04-24T10:51:10;17.92;;;6.28;;
33421;SDS011;19763;55.798;37.782;2023-04-24T10:53:37;10.18;;;5.57;;
33421;SDS011;19763;55.798;37.782;2023-04-24T10:56:03;8.80;;;4.93;;
33421;SDS011;19763;55.798;37.782;2023-04-24T10:58:41;11.07;;;5.60;;
33421;SDS011;19763;55.798;37.782;2023-04-24T11:01:48;7.22;;;6.13;;
33421;SDS011;19763;55.798;37.782;2023-04-24T11:04:21;9.73;;;6.05;;
33421;SDS011;19763;55.798;37.782;2023-04-24T11:06:55;8.60;;;6.60;;
33421;SDS011;19763;55.798;37.782;2023-04-24T11:09:20;5.90;;;5.15;;
33421;SDS011;19763;55.798;37.782;2023-04-24T11:11:46;5.93;;;5.32;;
33421;SDS011;19763;55.798;37.782;2023-04-24T11:14:15;7.88;;;5.40;;
33421;SDS011;19763;55.798;37.782;2023-04-24T11:16:42;9.35;;;5.43;;
33421;SDS011;19763;55.798;37.782;2023-04-24T11:19:24;8.25;;;4.75;;
33421;SDS011;19763;55.798;37.782;2023-04-24T11:21:58;8.10;;;5.35;;
33421;SDS011;19763;55.798;37.782;2023-04-24T11:24:29;8.88;;;5.22;;
33421;SDS011;19763;55.798;37.782;2023-04-24T11:29:42;10.38;;;5.80;;
33421;SDS011;19763;55.798;37.782;2023-04-24T11:34:56;14.43;;;5.72;;
33421;SDS011;19763;55.798;37.782;2023-04-24T11:37:40;8.13;;;5.40;;
33421;SDS011;19763;55.798;37.782;2023-04-24T11:40:08;9.77;;;5.32;;
33421;SDS011;19763;55.798;37.782;2023-04-24T11:42:40;7.93;;;5.10;;
33421;SDS011;19763;55.798;37.782;2023-04-24T11:45:13;8.80;;;4.95;;
33421;SDS011;19763;55.798;37.782;2023-04-24T11:47:41;6.45;;;5.07;;
33421;SDS011;19763;55.798;37.782;2023-04-24T11:50:09;8.63;;;4.80;;
33421;SDS011;19763;55.798;37.782;2023-04-24T11:52:37;8.70;;;6.85;;
33421;SDS011;19763;55.798;37.782;2023-04-24T11:55:26;9.38;;;5.65;;
33421;SDS011;19763;55.798;37.782;2023-04-24T11:57:53;8.95;;;5.68;;
33421;SDS011;19763;55.798;37.782;2023-04-24T12:00:22;6.53;;;5.10;;
33421;SDS011;19763;55.798;37.782;2023-04-24T12:03:08;7.55;;;5.47;;
33421;SDS011;19763;55.798;37.782;2023-04-24T12:05:34;7.32;;;4.80;;
33421;SDS011;19763;55.798;37.782;2023-04-24T12:08:00;8.27;;;5.05;;
33421;SDS011;19763;55.798;37.782;2023-04-24T12:10:27;8.77;;;5.03;;
33421;SDS011;19763;55.798;37.782;2023-04-24T12:12:55;8.00;;;4.72;;
33421;SDS011;19763;55.798;37.782;2023-04-24T12:15:22;10.27;;;5.78;;
33421;SDS011;19763;55.798;37.782;2023-04-24T12:17:50;6.65;;;5.03;;
33421;SDS011;19763;55.798;37.782;2023-04-24T12:20:17;12.93;;;5.25;;
33421;SDS011;19763;55.798;37.782;2023-04-24T12:22:49;10.73;;;5.30;;
33421;SDS011;19763;55.798;37.782;2023-04-24T12:25:18;10.57;;;5.80;;
33421;SDS011;19763;55.798;37.782;2023-04-24T12:27:46;15.10;;;5.70;;
33421;SDS011;19763;55.798;37.782;2023-04-24T12:30:17;6.93;;;4.93;;
33421;SDS011;19763;55.798;37.782;2023-04-24T12:32:43;9.52;;;5.13;;
33421;SDS011;19763;55.798;37.782;2023-04-24T12:35:10;7.57;;;5.22;;
33421;SDS011;19763;55.798;37.782;2023-04-24T12:37:36;14.40;;;4.85;;
33421;SDS011;19763;55.798;37.782;2023-04-24T12:40:09;9.63;;;6.15;;
33421;SDS011;19763;55.798;37.782;2023-04-24T12:42:41;8.75;;;4.93;;
33421;SDS011;19763;55.798;37.782;2023-04-24T12:45:11;8.68;;;4.50;;
33421;SDS011;19763;55.798;37.782;2023-04-24T12:47:37;13.02;;;5.28;;
33421;SDS011;19763;55.798;37.782;2023-04-24T12:50:04;6.60;;;4.93;;
33421;SDS011;19763;55.798;37.782;2023-04-24T12:52:31;7.20;;;4.05;;
33421;SDS011;19763;55.798;37.782;2023-04-24T12:54:58;8.48;;;5.13;;
33421;SDS011;19763;55.798;37.782;2023-04-24T12:57:26;13.55;;;4.97;;
33421;SDS011;19763;55.798;37.782;2023-04-24T12:59:54;7.80;;;5.40;;
33421;SDS011;19763;55.798;37.782;2023-04-24T13:02:21;6.22;;;4.60;;
33421;SDS011;19763;55.798;37.782;2023-04-24T13:04:47;8.00;;;4.70;;
33421;SDS011;19763;55.798;37.782;2023-04-24T13:07:13;7.75;;;4.80;;
33421;SDS011;19763;55.798;37.782;2023-04-24T13:09:40;7.20;;;4.60;;
33421;SDS011;19763;55.798;37.782;2023-04-24T13:12:06;7.25;;;4.88;;
33421;SDS011;19763;55.798;37.782;2023-04-24T13:14:33;9.18;;;4.85;;
33421;SDS011;19763;55.798;37.782;2023-04-24T13:16:58;8.32;;;4.80;;
33421;SDS011;19763;55.798;37.782;2023-04-24T13:19:24;6.55;;;4.47;;
33421;SDS011;19763;55.798;37.782;2023-04-24T13:21:51;8.30;;;4.50;;
33421;SDS011;19763;55.798;37.782;2023-04-24T13:24:17;5.15;;;4.13;;
33421;SDS011;19763;55.798;37.782;2023-04-24T13:26:43;8.98;;;5.03;;
33421;SDS011;19763;55.798;37.782;2023-04-24T13:29:08;14.60;;;4.75;;
33421;SDS011;19763;55.798;37.782;2023-04-24T13:31:35;11.57;;;4.95;;
33421;SDS011;19763;55.798;37.782;2023-04-24T13:34:01;9.98;;;4.95;;
33421;SDS011;19763;55.798;37.782;2023-04-24T13:36:28;6.40;;;4.88;;
33421;SDS011;19763;55.798;37.782;2023-04-24T13:38:54;6.10;;;4.38;;
33421;SDS011;19763;55.798;37.782;2023-04-24T13:41:19;11.95;;;4.70;;
33421;SDS011;19763;55.798;37.782;2023-04-24T13:43:45;9.30;;;4.30;;
33421;SDS011;19763;55.798;37.782;2023-04-24T13:46:11;14.50;;;5.28;;
33421;SDS011;19763;55.798;37.782;2023-04-24T13:48:36;6.35;;;4.38;;
33421;SDS011;19763;55.798;37.782;2023-04-24T13:51:02;9.75;;;4.35;;
33421;SDS011;19763;55.798;37.782;2023-04-24T13:53:28;6.03;;;4.10;;
33421;SDS011;19763;55.798;37.782;2023-04-24T13:55:53;13.95;;;5.72;;
33421;SDS011;19763;55.798;37.782;2023-04-24T13:58:19;6.20;;;4.53;;
33421;SDS011;19763;55.798;37.782;2023-04-24T14:00:45;14.32;;;5.38;;
33421;SDS011;19763;55.798;37.782;2023-04-24T14:03:11;6.30;;;4.30;;
33421;SDS011;19763;55.798;37.782;2023-04-24T14:05:37;7.20;;;4.72;;
33421;SDS011;19763;55.798;37.782;2023-04-24T14:08:02;5.78;;;4.22;;
33421;SDS011;19763;55.798;37.782;2023-04-24T14:10:28;5.32;;;4.07;;
33421;SDS011;19763;55.798;37.782;2023-04-24T14:12:53;6.65;;;4.50;;
33421;SDS011;19763;55.798;37.782;2023-04-24T14:15:19;8.48;;;4.15;;
33421;SDS011;19763;55.798;37.782;2023-04-24T14:17:45;7.43;;;4.72;;
33421;SDS011;19763;55.798;37.782;2023-04-24T14:20:12;7.93;;;4.68;;
33421;SDS011;19763;55.798;37.782;2023-04-24T14:22:37;6.22;;;3.97;;
33421;SDS011;19763;55.798;37.782;2023-04-24T14:25:04;5.30;;;4.25;;
33421;SDS011;19763;55.798;37.782;2023-04-24T14:27:30;8.82;;;4.18;;
33421;SDS011;19763;55.798;37.782;2023-04-24T14:29:57;6.35;;;4.85;;